sensor_id;sensor_type;location;lat;lon;timestamp;pressure;altitude;pressure_sealevel;temperature;humidity
34586;BME280;20816;50.950;11.108;2023-02-17T00:01:23;98912.13;;;8.35;94.25
34586;BME280;20816;50.950;11.108;2023-02-17T00:03:51;98923.47;;;8.31;94.32
34586;BME280;20816;50.950;11.108;2023-02-17T00:06:20;98932.25;;;8.25;94.48
34586;BME280;20816;50.950;11.108;2023-02-17T00:08:47;98925.22;;;8.32;94.64
34586;BME280;20816;50.950;11.108;2023-02-17T00:11:14;98917.41;;;8.26;94.65
34586;BME280;20816;50.950;11.108;2023-02-17T00:13:41;98906.84;;;8.38;94.37
34586;BME280;20816;50.950;11.108;2023-02-17T00:16:11;98904.38;;;8.17;95.66
34586;BME280;20816;50.950;11.108;2023-02-17T00:18:38;98892.09;;;8.22;95.29
34586;BME280;20816;50.950;11.108;2023-02-17T00:21:20;98903.41;;;8.28;95.73
34586;BME280;20816;50.950;11.108;2023-02-17T00:23:48;98909.56;;;8.23;97.79
34586;BME280;20816;50.950;11.108;2023-02-17T00:26:16;98908.69;;;8.24;99.23
34586;BME280;20816;50.950;11.108;2023-02-17T00:28:44;98903.50;;;8.18;99.66
34586;BME280;20816;50.950;11.108;2023-02-17T00:31:16;98898.28;;;8.13;99.52
34586;BME280;20816;50.950;11.108;2023-02-17T00:33:43;98900.03;;;8.12;99.03
34586;BME280;20816;50.950;11.108;2023-02-17T00:36:12;98897.41;;;8.15;99.19
34586;BME280;20816;50.950;11.108;2023-02-17T00:38:39;98897.47;;;8.05;100.00
34586;BME280;20816;50.950;11.108;2023-02-17T00:41:06;98891.25;;;8.20;99.52
34586;BME280;20816;50.950;11.108;2023-02-17T00:43:32;98882.59;;;8.11;99.99
34586;BME280;20816;50.950;11.108;2023-02-17T00:45:59;98876.50;;;8.09;99.96
34586;BME280;20816;50.950;11.108;2023-02-17T00:48:30;98872.16;;;8.08;100.00
34586;BME280;20816;50.950;11.108;2023-02-17T00:50:57;98863.44;;;8.06;100.00
34586;BME280;20816;50.950;11.108;2023-02-17T00:53:23;98870.41;;;8.07;100.00
34586;BME280;20816;50.950;11.108;2023-02-17T00:55:50;98866.97;;;8.01;100.00
34586;BME280;20816;50.950;11.108;2023-02-17T00:58:17;98859.94;;;8.07;100.00
34586;BME280;20816;50.950;11.108;2023-02-17T01:00:43;98855.53;;;8.11;100.00
34586;BME280;20816;50.950;11.108;2023-02-17T01:03:10;98851.13;;;8.18;100.00
34586;BME280;20816;50.950;11.108;2023-02-17T01:05:41;98858.94;;;8.22;100.00
34586;BME280;20816;50.950;11.108;2023-02-17T01:08:10;98839.66;;;8.32;100.00
34586;BME280;20816;50.950;11.108;2023-02-17T01:10:41;98844.97;;;8.22;100.00
34586;BME280;20816;50.950;11.108;2023-02-17T01:13:08;98840.63;;;8.19;100.00
34586;BME280;20816;50.950;11.108;2023-02-17T01:16:01;98846.66;;;8.27;100.00
34586;BME280;20816;50.950;11.108;2023-02-17T01:18:28;98840.53;;;8.30;100.00
34586;BME280;20816;50.950;11.108;2023-02-17T01:20:54;98844.03;;;8.35;100.00
34586;BME280;20816;50.950;11.108;2023-02-17T01:23:21;98853.63;;;8.36;100.00
34586;BME280;20816;50.950;11.108;2023-02-17T01:25:47;98849.22;;;8.38;100.00
34586;BME280;20816;50.950;11.108;2023-02-17T01:28:19;98843.97;;;8.41;100.00
34586;BME280;20816;50.950;11.108;2023-02-17T01:30:46;98845.75;;;8.34;100.00
34586;BME280;20816;50.950;11.108;2023-02-17T01:33:13;98850.09;;;8.40;100.00
34586;BME280;20816;50.950;11.108;2023-02-17T01:35:41;98848.31;;;8.43;100.00
34586;BME280;20816;50.950;11.108;2023-02-17T01:38:08;98864.97;;;8.33;100.00
34586;BME280;20816;50.950;11.108;2023-02-17T01:40:35;98862.34;;;8.35;100.00
34586;BME280;20816;50.950;11.108;2023-02-17T01:43:02;98864.97;;;8.29;100.00
34586;BME280;20816;50.950;11.108;2023-02-17T01:45:37;98866.69;;;8.40;100.00
34586;BME280;20816;50.950;11.108;2023-02-17T01:48:12;98851.03;;;8.27;100.00
34586;BME280;20816;50.950;11.108;2023-02-17T01:50:54;98851.00;;;8.30;100.00
34586;BME280;20816;50.950;11.108;2023-02-17T01:53:26;98842.25;;;8.34;100.00
34586;BME280;20816;50.950;11.108;2023-02-17T01:56:04;98851.03;;;8.27;100.00
34586;BME280;20816;50.950;11.108;2023-02-17T01:58:32;98845.84;;;8.24;100.00
34586;BME280;20816;50.950;11.108;2023-02-17T02:01:02;98841.53;;;8.17;100.00
34586;BME280;20816;50.950;11.108;2023-02-17T02:03:34;98839.78;;;8.14;100.00
34586;BME280;20816;50.950;11.108;2023-02-17T02:06:05;98834.56;;;8.14;100.00
34586;BME280;20816;50.950;11.108;2023-02-17T02:08:41;98836.25;;;8.20;100.00
34586;BME280;20816;50.950;11.108;2023-02-17T02:11:10;98831.06;;;8.17;100.00
34586;BME280;20816;50.950;11.108;2023-02-17T02:13:38;98824.16;;;8.08;100.00
34586;BME280;20816;50.950;11.108;2023-02-17T02:16:25;98814.56;;;8.05;100.00
34586;BME280;20816;50.950;11.108;2023-02-17T02:19:34;98808.44;;;8.09;100.00
34586;BME280;20816;50.950;11.108;2023-02-17T02:27:27;98797.03;;;8.13;100.00
34586;BME280;20816;50.950;11.108;2023-02-17T02:30:33;98799.59;;;8.20;100.00
34586;BME280;20816;50.950;11.108;2023-02-17T02:36:00;98781.41;;;8.07;100.00
34586;BME280;20816;50.950;11.108;2023-02-17T02:41:33;98780.47;;;8.11;100.00
34586;BME280;20816;50.950;11.108;2023-02-17T02:44:07;98770.06;;;8.08;100.00
34586;BME280;20816;50.950;11.108;2023-02-17T02:46:34;98776.09;;;8.17;100.00
34586;BME280;20816;50.950;11.108;2023-02-17T02:49:01;98778.78;;;8.09;100.00
34586;BME280;20816;50.950;11.108;2023-02-17T02:51:44;98769.13;;;8.15;100.00
34586;BME280;20816;50.950;11.108;2023-02-17T02:57:03;98776.97;;;8.14;100.00
34586;BME280;20816;50.950;11.108;2023-02-17T02:59:59;98764.69;;;8.24;100.00
34586;BME280;20816;50.950;11.108;2023-02-17T03:08:07;98751.66;;;8.16;100.00
34586;BME280;20816;50.950;11.108;2023-02-17T03:10:44;98751.72;;;8.08;100.00
34586;BME280;20816;50.950;11.108;2023-02-17T03:13:11;98749.94;;;8.15;100.00
34586;BME280;20816;50.950;11.108;2023-02-17T03:15:38;98747.31;;;8.15;100.00
34586;BME280;20816;50.950;11.108;2023-02-17T03:18:04;98745.53;;;8.14;100.00
34586;BME280;20816;50.950;11.108;2023-02-17T03:20:40;98750.81;;;8.12;100.00
34586;BME280;20816;50.950;11.108;2023-02-17T03:23:08;98741.22;;;8.14;100.00
34586;BME280;20816;50.950;11.108;2023-02-17T03:25:36;98732.53;;;8.09;100.00
34586;BME280;20816;50.950;11.108;2023-02-17T03:28:03;98727.22;;;8.15;100.00
34586;BME280;20816;50.950;11.108;2023-02-17T03:30:29;98720.16;;;8.24;100.00
34586;BME280;20816;50.950;11.108;2023-02-17T03:32:56;98725.41;;;8.21;100.00
34586;BME280;20816;50.950;11.108;2023-02-17T03:35:25;98725.31;;;8.30;100.00
34586;BME280;20816;50.950;11.108;2023-02-17T03:37:52;98729.78;;;8.20;100.00
34586;BME280;20816;50.950;11.108;2023-02-17T03:40:18;98723.72;;;8.17;100.00
34586;BME280;20816;50.950;11.108;2023-02-17T03:42:45;98730.72;;;8.14;100.00
34586;BME280;20816;50.950;11.108;2023-02-17T03:45:12;98737.63;;;8.23;100.00
34586;BME280;20816;50.950;11.108;2023-02-17T03:47:38;98744.53;;;8.29;100.00
34586;BME280;20816;50.950;11.108;2023-02-17T03:50:06;98725.38;;;8.25;100.00
34586;BME280;20816;50.950;11.108;2023-02-17T03:52:32;98735.88;;;8.24;100.00
34586;BME280;20816;50.950;11.108;2023-02-17T03:54:59;98727.22;;;8.15;100.00
34586;BME280;20816;50.950;11.108;2023-02-17T03:57:26;98721.00;;;8.26;100.00
34586;BME280;20816;50.950;11.108;2023-02-17T03:59:55;98728.91;;;8.23;100.00
34586;BME280;20816;50.950;11.108;2023-02-17T04:02:21;98730.72;;;8.16;100.00
34586;BME280;20816;50.950;11.108;2023-02-17T04:04:48;98741.16;;;8.18;100.00
34586;BME280;20816;50.950;11.108;2023-02-17T04:07:14;98728.97;;;8.13;100.00
34586;BME280;20816;50.950;11.108;2023-02-17T04:09:43;98734.16;;;8.20;100.00
34586;BME280;20816;50.950;11.108;2023-02-17T04:12:09;98730.66;;;8.21;100.00
34586;BME280;20816;50.950;11.108;2023-02-17T04:14:36;98733.25;;;8.21;100.00
34586;BME280;20816;50.950;11.108;2023-02-17T04:17:03;98736.75;;;8.24;100.00
34586;BME280;20816;50.950;11.108;2023-02-17T04:19:29;98746.34;;;8.21;100.00
34586;BME280;20816;50.950;11.108;2023-02-17T04:21:58;98744.63;;;8.23;100.00
34586;BME280;20816;50.950;11.108;2023-02-17T04:24:25;98749.84;;;8.20;100.00
34586;BME280;20816;50.950;11.108;2023-02-17T04:26:51;98735.81;;;8.27;100.00
34586;BME280;20816;50.950;11.108;2023-02-17T04:29:18;98740.28;;;8.19;100.00
34586;BME280;20816;50.950;11.108;2023-02-17T04:31:44;98748.13;;;8.19;100.00
34586;BME280;20816;50.950;11.108;2023-02-17T04:34:11;98742.84;;;8.22;100.00
34586;BME280;20816;50.950;11.108;2023-02-17T04:36:38;98742.94;;;8.12;100.00
34586;BME280;20816;50.950;11.108;2023-02-17T04:39:04;98741.22;;;8.14;100.00
34586;BME280;20816;50.950;11.108;2023-02-17T04:41:31;98742.00;;;8.20;100.00
34586;BME280;20816;50.950;11.108;2023-02-17T04:43:57;98736.75;;;8.21;100.00
34586;BME280;20816;50.950;11.108;2023-02-17T04:46:31;98727.13;;;8.22;100.00
34586;BME280;20816;50.950;11.108;2023-02-17T04:48:57;98734.13;;;8.23;100.00
34586;BME280;20816;50.950;11.108;2023-02-17T04:51:24;98725.34;;;8.27;100.00
34586;BME280;20816;50.950;11.108;2023-02-17T04:53:50;98721.06;;;8.20;100.00
34586;BME280;20816;50.950;11.108;2023-02-17T04:56:17;98708.81;;;8.22;100.00
34586;BME280;20816;50.950;11.108;2023-02-17T04:58:44;98711.31;;;8.34;100.00
34586;BME280;20816;50.950;11.108;2023-02-17T05:01:10;98702.69;;;8.26;100.00
34586;BME280;20816;50.950;11.108;2023-02-17T05:03:40;98698.25;;;8.32;100.00
34586;BME280;20816;50.950;11.108;2023-02-17T05:06:07;98695.59;;;8.37;100.00
34586;BME280;20816;50.950;11.108;2023-02-17T05:08:34;98692.00;;;8.44;100.00
34586;BME280;20816;50.950;11.108;2023-02-17T05:11:00;98679.00;;;8.38;100.00
34586;BME280;20816;50.950;11.108;2023-02-17T05:13:29;98674.63;;;8.37;100.00
34586;BME280;20816;50.950;11.108;2023-02-17T05:15:55;98672.00;;;8.40;100.00
34586;BME280;20816;50.950;11.108;2023-02-17T05:18:22;98672.78;;;8.45;100.00
34586;BME280;20816;50.950;11.108;2023-02-17T05:20:48;98672.66;;;8.57;100.00
34586;BME280;20816;50.950;11.108;2023-02-17T05:23:15;98672.78;;;8.48;100.00
34586;BME280;20816;50.950;11.108;2023-02-17T05:25:42;98663.06;;;8.55;100.00
34586;BME280;20816;50.950;11.108;2023-02-17T05:28:11;98658.75;;;8.52;100.00
34586;BME280;20816;50.950;11.108;2023-02-17T05:30:37;98668.22;;;8.62;100.00
34586;BME280;20816;50.950;11.108;2023-02-17T05:33:04;98663.81;;;8.63;100.00
34586;BME280;20816;50.950;11.108;2023-02-17T05:35:33;98667.38;;;8.60;100.00
34586;BME280;20816;50.950;11.108;2023-02-17T05:38:02;98672.53;;;8.66;100.00
34586;BME280;20816;50.950;11.108;2023-02-17T05:40:28;98676.03;;;8.65;100.00
34586;BME280;20816;50.950;11.108;2023-02-17T05:42:55;98669.06;;;8.66;100.00
34586;BME280;20816;50.950;11.108;2023-02-17T05:45:22;98680.41;;;8.65;100.00
34586;BME280;20816;50.950;11.108;2023-02-17T05:47:48;98677.69;;;8.71;100.00
34586;BME280;20816;50.950;11.108;2023-02-17T05:50:15;98674.31;;;8.64;100.00
34586;BME280;20816;50.950;11.108;2023-02-17T05:52:41;98663.75;;;8.72;100.00
34586;BME280;20816;50.950;11.108;2023-02-17T05:55:08;98664.59;;;8.73;100.00
34586;BME280;20816;50.950;11.108;2023-02-17T05:57:35;98661.94;;;8.74;100.00
34586;BME280;20816;50.950;11.108;2023-02-17T06:00:02;98667.25;;;8.69;100.00
34586;BME280;20816;50.950;11.108;2023-02-17T06:02:29;98674.13;;;8.78;100.00
34586;BME280;20816;50.950;11.108;2023-02-17T06:04:56;98670.50;;;8.87;100.00
34586;BME280;20816;50.950;11.108;2023-02-17T06:07:24;98671.50;;;8.80;100.00
34586;BME280;20816;50.950;11.108;2023-02-17T06:09:52;98677.53;;;8.85;100.00
34586;BME280;20816;50.950;11.108;2023-02-17T06:12:19;98680.16;;;8.83;100.00
34586;BME280;20816;50.950;11.108;2023-02-17T06:14:46;98660.94;;;8.84;100.00
34586;BME280;20816;50.950;11.108;2023-02-17T06:17:12;98663.50;;;8.87;100.00
34586;BME280;20816;50.950;11.108;2023-02-17T06:19:39;98669.63;;;8.88;100.00
34586;BME280;20816;50.950;11.108;2023-02-17T06:22:07;98666.97;;;8.91;100.00
34586;BME280;20816;50.950;11.108;2023-02-17T06:24:33;98668.75;;;8.89;100.00
34586;BME280;20816;50.950;11.108;2023-02-17T06:27:00;98665.16;;;8.96;100.00
34586;BME280;20816;50.950;11.108;2023-02-17T06:29:27;98672.22;;;8.91;100.00
34586;BME280;20816;50.950;11.108;2023-02-17T06:31:54;98678.41;;;8.84;100.00
34586;BME280;20816;50.950;11.108;2023-02-17T06:34:23;98673.94;;;8.92;100.00
34586;BME280;20816;50.950;11.108;2023-02-17T06:36:50;98665.19;;;8.93;100.00
34586;BME280;20816;50.950;11.108;2023-02-17T06:39:16;98665.13;;;8.97;100.00
34586;BME280;20816;50.950;11.108;2023-02-17T06:41:43;98669.63;;;8.88;100.00
34586;BME280;20816;50.950;11.108;2023-02-17T06:44:10;98668.63;;;8.95;100.00
34586;BME280;20816;50.950;11.108;2023-02-17T06:46:37;98672.13;;;8.97;100.00
34586;BME280;20816;50.950;11.108;2023-02-17T06:49:04;98673.03;;;8.96;100.00
34586;BME280;20816;50.950;11.108;2023-02-17T06:51:31;98665.16;;;8.96;100.00
34586;BME280;20816;50.950;11.108;2023-02-17T06:53:58;98666.84;;;8.98;100.00
34586;BME280;20816;50.950;11.108;2023-02-17T06:56:24;98650.97;;;9.09;100.00
34586;BME280;20816;50.950;11.108;2023-02-17T06:58:51;98661.56;;;9.02;100.00
34586;BME280;20816;50.950;11.108;2023-02-17T07:01:27;98659.78;;;9.05;100.00
34586;BME280;20816;50.950;11.108;2023-02-17T07:03:55;98645.72;;;9.09;100.00
34586;BME280;20816;50.950;11.108;2023-02-17T07:06:23;98633.44;;;9.11;100.00
34586;BME280;20816;50.950;11.108;2023-02-17T07:08:50;98647.41;;;9.13;100.00
34586;BME280;20816;50.950;11.108;2023-02-17T07:11:18;98652.63;;;9.15;100.00
34586;BME280;20816;50.950;11.108;2023-02-17T07:13:45;98656.94;;;9.17;100.00
34586;BME280;20816;50.950;11.108;2023-02-17T07:16:13;98638.66;;;9.14;100.00
34586;BME280;20816;50.950;11.108;2023-02-17T07:18:40;98650.03;;;9.13;100.00
34586;BME280;20816;50.950;11.108;2023-02-17T07:21:08;98644.72;;;9.16;100.00
34586;BME280;20816;50.950;11.108;2023-02-17T07:23:35;98645.56;;;9.18;100.00
34586;BME280;20816;50.950;11.108;2023-02-17T07:26:08;98642.81;;;9.29;100.00
34586;BME280;20816;50.950;11.108;2023-02-17T07:28:36;98638.50;;;9.23;100.00
34586;BME280;20816;50.950;11.108;2023-02-17T07:31:11;98648.00;;;9.31;100.00
34586;BME280;20816;50.950;11.108;2023-02-17T07:33:39;98647.06;;;9.35;100.00
34586;BME280;20816;50.950;11.108;2023-02-17T07:36:10;98653.16;;;9.35;100.00
34586;BME280;20816;50.950;11.108;2023-02-17T07:38:38;98653.00;;;9.46;100.00
34586;BME280;20816;50.950;11.108;2023-02-17T07:41:11;98646.03;;;9.43;100.00
34586;BME280;20816;50.950;11.108;2023-02-17T07:43:39;98644.06;;;9.58;100.00
34586;BME280;20816;50.950;11.108;2023-02-17T07:46:06;98641.41;;;9.59;100.00
34586;BME280;20816;50.950;11.108;2023-02-17T07:48:34;98645.72;;;9.63;100.00
34586;BME280;20816;50.950;11.108;2023-02-17T07:51:21;98633.50;;;9.62;100.00
34586;BME280;20816;50.950;11.108;2023-02-17T07:53:49;98648.28;;;9.66;100.00
34586;BME280;20816;50.950;11.108;2023-02-17T07:56:17;98649.97;;;9.69;100.00
34586;BME280;20816;50.950;11.108;2023-02-17T07:58:44;98634.97;;;9.77;100.00
34586;BME280;20816;50.950;11.108;2023-02-17T08:01:16;98654.16;;;9.80;100.00
34586;BME280;20816;50.950;11.108;2023-02-17T08:03:44;98648.88;;;9.82;100.00
34586;BME280;20816;50.950;11.108;2023-02-17T08:06:14;98644.50;;;9.82;100.00
34586;BME280;20816;50.950;11.108;2023-02-17T08:08:41;98641.03;;;9.80;100.00
34586;BME280;20816;50.950;11.108;2023-02-17T08:11:27;98646.28;;;9.80;100.00
34586;BME280;20816;50.950;11.108;2023-02-17T08:14:15;98650.56;;;9.86;100.00
34586;BME280;20816;50.950;11.108;2023-02-17T08:16:42;98651.38;;;9.90;100.00
34586;BME280;20816;50.950;11.108;2023-02-17T08:19:09;98639.13;;;9.89;100.00
34586;BME280;20816;50.950;11.108;2023-02-17T08:21:35;98619.66;;;10.02;100.00
34586;BME280;20816;50.950;11.108;2023-02-17T08:24:02;98612.53;;;10.07;100.00
34586;BME280;20816;50.950;11.108;2023-02-17T08:26:32;98612.53;;;10.07;100.00
34586;BME280;20816;50.950;11.108;2023-02-17T08:28:59;98607.34;;;10.04;100.00
34586;BME280;20816;50.950;11.108;2023-02-17T08:31:35;98590.66;;;10.06;100.00
34586;BME280;20816;50.950;11.108;2023-02-17T08:34:06;98606.41;;;10.06;100.00
34586;BME280;20816;50.950;11.108;2023-02-17T08:36:36;98596.72;;;10.10;100.00
34586;BME280;20816;50.950;11.108;2023-02-17T08:39:06;98594.88;;;10.14;100.00
34586;BME280;20816;50.950;11.108;2023-02-17T08:41:36;98602.66;;;10.20;100.00
34586;BME280;20816;50.950;11.108;2023-02-17T08:44:12;98594.56;;;10.30;100.00
34586;BME280;20816;50.950;11.108;2023-02-17T08:46:41;98587.47;;;10.35;100.00
34586;BME280;20816;50.950;11.108;2023-02-17T08:49:09;98587.53;;;10.32;100.00
34586;BME280;20816;50.950;11.108;2023-02-17T08:51:36;98581.53;;;10.27;100.00
34586;BME280;20816;50.950;11.108;2023-02-17T08:54:04;98584.84;;;10.35;100.00
34586;BME280;20816;50.950;11.108;2023-02-17T08:56:36;98575.38;;;10.28;100.00
34586;BME280;20816;50.950;11.108;2023-02-17T08:59:04;98582.22;;;10.34;100.00
34586;BME280;20816;50.950;11.108;2023-02-17T09:01:32;98580.41;;;10.37;100.00
34586;BME280;20816;50.950;11.108;2023-02-17T09:04:02;98582.06;;;10.42;100.00
34586;BME280;20816;50.950;11.108;2023-02-17T09:06:39;98578.69;;;10.36;100.00
34586;BME280;20816;50.950;11.108;2023-02-17T09:09:09;98603.16;;;10.38;100.00
34586;BME280;20816;50.950;11.108;2023-02-17T09:11:36;98590.94;;;10.37;100.00
34586;BME280;20816;50.950;11.108;2023-02-17T09:14:04;98582.19;;;10.37;100.00
34586;BME280;20816;50.950;11.108;2023-02-17T09:16:33;98579.56;;;10.37;100.00
34586;BME280;20816;50.950;11.108;2023-02-17T09:19:03;98575.25;;;10.34;100.00
34586;BME280;20816;50.950;11.108;2023-02-17T09:21:30;98567.25;;;10.39;100.00
34586;BME280;20816;50.950;11.108;2023-02-17T09:23:57;98554.22;;;10.34;100.00
34586;BME280;20816;50.950;11.108;2023-02-17T09:26:24;98564.72;;;10.34;100.00
34586;BME280;20816;50.950;11.108;2023-02-17T09:28:51;98555.03;;;10.36;100.00
34586;BME280;20816;50.950;11.108;2023-02-17T09:31:23;98537.44;;;10.40;100.00
34586;BME280;20816;50.950;11.108;2023-02-17T09:33:51;98548.59;;;10.51;100.00
34586;BME280;20816;50.950;11.108;2023-02-17T09:36:21;98538.81;;;10.56;100.00
34586;BME280;20816;50.950;11.108;2023-02-17T09:38:49;98541.38;;;10.61;100.00
34586;BME280;20816;50.950;11.108;2023-02-17T09:44:00;98540.94;;;10.79;100.00
34586;BME280;20816;50.950;11.108;2023-02-17T09:46:40;98536.66;;;10.75;100.00
34586;BME280;20816;50.950;11.108;2023-02-17T09:49:37;98535.53;;;10.85;100.00
34586;BME280;20816;50.950;11.108;2023-02-17T09:55:08;98543.56;;;11.15;100.00
34586;BME280;20816;50.950;11.108;2023-02-17T09:58:00;98536.38;;;11.21;100.00
34586;BME280;20816;50.950;11.108;2023-02-17T10:00:32;98529.44;;;11.19;100.00
34586;BME280;20816;50.950;11.108;2023-02-17T10:03:05;98537.19;;;11.23;100.00
34586;BME280;20816;50.950;11.108;2023-02-17T10:05:44;98526.38;;;11.36;100.00
34586;BME280;20816;50.950;11.108;2023-02-17T10:08:23;98523.78;;;11.34;100.00
34586;BME280;20816;50.950;11.108;2023-02-17T10:11:23;98507.91;;;11.37;100.00
34586;BME280;20816;50.950;11.108;2023-02-17T10:13:53;98514.97;;;11.35;100.00
34586;BME280;20816;50.950;11.108;2023-02-17T10:16:31;98533.09;;;11.46;100.00
34586;BME280;20816;50.950;11.108;2023-02-17T10:19:06;98537.44;;;11.48;100.00
34586;BME280;20816;50.950;11.108;2023-02-17T10:21:39;98520.56;;;11.56;100.00
34586;BME280;20816;50.950;11.108;2023-02-17T10:24:08;98526.63;;;11.59;100.00
34586;BME280;20816;50.950;11.108;2023-02-17T10:26:46;98528.47;;;11.56;100.00
34586;BME280;20816;50.950;11.108;2023-02-17T10:29:30;98524.03;;;11.58;100.00
34586;BME280;20816;50.950;11.108;2023-02-17T10:35:11;98535.53;;;11.54;100.00
34586;BME280;20816;50.950;11.108;2023-02-17T10:38:01;98533.91;;;11.49;100.00
34586;BME280;20816;50.950;11.108;2023-02-17T10:40:32;98524.34;;;11.45;100.00
34586;BME280;20816;50.950;11.108;2023-02-17T10:43:01;98512.06;;;11.46;100.00
34586;BME280;20816;50.950;11.108;2023-02-17T10:45:41;98485.91;;;11.40;100.00
34586;BME280;20816;50.950;11.108;2023-02-17T10:48:15;98492.97;;;11.38;100.00
34586;BME280;20816;50.950;11.108;2023-02-17T10:50:44;98493.94;;;11.35;100.00
34586;BME280;20816;50.950;11.108;2023-02-17T10:53:22;98484.25;;;11.36;100.00
34586;BME280;20816;50.950;11.108;2023-02-17T10:56:08;98484.97;;;11.42;100.00
34586;BME280;20816;50.950;11.108;2023-02-17T10:58:49;98469.22;;;11.41;100.00
34586;BME280;20816;50.950;11.108;2023-02-17T11:01:18;98472.47;;;11.50;100.00
34586;BME280;20816;50.950;11.108;2023-02-17T11:04:19;98490.22;;;11.42;100.00
34586;BME280;20816;50.950;11.108;2023-02-17T11:06:51;98490.06;;;11.48;100.00
34586;BME280;20816;50.950;11.108;2023-02-17T11:09:25;98486.59;;;11.46;100.00
34586;BME280;20816;50.950;11.108;2023-02-17T11:12:17;98461.78;;;11.55;100.00
34586;BME280;20816;50.950;11.108;2023-02-17T11:14:48;98469.63;;;11.58;100.00
34586;BME280;20816;50.950;11.108;2023-02-17T11:17:27;98470.38;;;11.62;100.00
34586;BME280;20816;50.950;11.108;2023-02-17T11:20:00;98476.47;;;11.64;100.00
34586;BME280;20816;50.950;11.108;2023-02-17T11:22:31;98462.44;;;11.63;100.00
34586;BME280;20816;50.950;11.108;2023-02-17T11:25:06;98466.94;;;11.60;100.00
34586;BME280;20816;50.950;11.108;2023-02-17T11:27:33;98466.84;;;11.63;100.00
34586;BME280;20816;50.950;11.108;2023-02-17T11:30:14;98469.34;;;11.67;100.00
34586;BME280;20816;50.950;11.108;2023-02-17T11:32:46;98487.84;;;11.66;100.00
34586;BME280;20816;50.950;11.108;2023-02-17T11:35:26;98472.03;;;11.66;100.00
34586;BME280;20816;50.950;11.108;2023-02-17T11:38:14;98462.22;;;11.71;100.00
34586;BME280;20816;50.950;11.108;2023-02-17T11:41:03;98463.13;;;11.70;100.00
34586;BME280;20816;50.950;11.108;2023-02-17T11:43:33;98461.16;;;11.78;100.00
34586;BME280;20816;50.950;11.108;2023-02-17T11:46:50;98451.22;;;11.89;100.00
34586;BME280;20816;50.950;11.108;2023-02-17T11:51:54;98461.94;;;12.11;100.00
34586;BME280;20816;50.950;11.108;2023-02-17T11:55:02;98440.41;;;12.26;100.00
34586;BME280;20816;50.950;11.108;2023-02-17T11:57:43;98431.91;;;12.45;100.00
34586;BME280;20816;50.950;11.108;2023-02-17T12:08:50;98401.63;;;12.58;99.95
34586;BME280;20816;50.950;11.108;2023-02-17T12:16:58;98373.34;;;12.63;98.38
34586;BME280;20816;50.950;11.108;2023-02-17T12:22:28;98393.34;;;12.69;98.16
34586;BME280;20816;50.950;11.108;2023-02-17T12:28:17;98430.56;;;12.59;98.86
34586;BME280;20816;50.950;11.108;2023-02-17T12:31:01;98418.50;;;12.79;98.04
34586;BME280;20816;50.950;11.108;2023-02-17T12:33:51;98424.38;;;12.87;97.23
34586;BME280;20816;50.950;11.108;2023-02-17T12:36:26;98435.38;;;13.00;97.40
34586;BME280;20816;50.950;11.108;2023-02-17T12:39:19;98410.44;;;13.08;96.10
34586;BME280;20816;50.950;11.108;2023-02-17T12:41:53;98389.53;;;13.29;95.26
34586;BME280;20816;50.950;11.108;2023-02-17T12:44:37;98407.66;;;13.38;94.62
34586;BME280;20816;50.950;11.108;2023-02-17T12:47:13;98398.03;;;13.37;94.01
34586;BME280;20816;50.950;11.108;2023-02-17T12:50:06;98377.13;;;13.31;94.92
34586;BME280;20816;50.950;11.108;2023-02-17T12:52:39;98378.50;;;13.41;94.55
34586;BME280;20816;50.950;11.108;2023-02-17T12:55:21;98375.00;;;13.40;94.72
34586;BME280;20816;50.950;11.108;2023-02-17T13:00:40;98374.88;;;13.20;96.09
34586;BME280;20816;50.950;11.108;2023-02-17T13:03:08;98374.94;;;13.17;95.78
34586;BME280;20816;50.950;11.108;2023-02-17T13:05:42;98374.03;;;13.20;95.99
34586;BME280;20816;50.950;11.108;2023-02-17T13:08:41;98370.22;;;13.27;96.04
34586;BME280;20816;50.950;11.108;2023-02-17T13:11:24;98378.50;;;13.41;95.68
34586;BME280;20816;50.950;11.108;2023-02-17T13:13:51;98362.00;;;13.36;94.80
34586;BME280;20816;50.950;11.108;2023-02-17T13:16:19;98364.38;;;13.42;95.63
34586;BME280;20816;50.950;11.108;2023-02-17T13:18:50;98365.38;;;13.39;95.66
34586;BME280;20816;50.950;11.108;2023-02-17T13:24:04;98367.22;;;13.37;95.25
34586;BME280;20816;50.950;11.108;2023-02-17T13:26:36;98367.22;;;13.37;95.24
34586;BME280;20816;50.950;11.108;2023-02-17T13:31:53;98373.56;;;13.32;95.84
34586;BME280;20816;50.950;11.108;2023-02-17T13:34:38;98370.88;;;13.33;95.77
34586;BME280;20816;50.950;11.108;2023-02-17T13:37:36;98361.28;;;13.31;95.90
34586;BME280;20816;50.950;11.108;2023-02-17T13:42:55;98356.06;;;13.29;96.83
34586;BME280;20816;50.950;11.108;2023-02-17T13:45:28;98374.31;;;13.35;96.98
34586;BME280;20816;50.950;11.108;2023-02-17T13:47:58;98367.59;;;13.50;95.90
34586;BME280;20816;50.950;11.108;2023-02-17T13:50:44;98365.59;;;13.33;96.63
34586;BME280;20816;50.950;11.108;2023-02-17T13:55:53;98343.53;;;13.36;97.17
34586;BME280;20816;50.950;11.108;2023-02-17T13:58:26;98353.72;;;13.45;96.96
34586;BME280;20816;50.950;11.108;2023-02-17T14:00:55;98365.53;;;13.35;97.43
34586;BME280;20816;50.950;11.108;2023-02-17T14:03:41;98357.59;;;13.35;97.38
34586;BME280;20816;50.950;11.108;2023-02-17T14:06:19;98352.91;;;13.43;96.96
34586;BME280;20816;50.950;11.108;2023-02-17T14:08:48;98346.09;;;13.37;97.13
34586;BME280;20816;50.950;11.108;2023-02-17T14:11:21;98361.81;;;13.40;96.74
34586;BME280;20816;50.950;11.108;2023-02-17T14:13:51;98375.88;;;13.41;97.14
34586;BME280;20816;50.950;11.108;2023-02-17T14:16:33;98376.78;;;13.40;97.00